createdAt,value
2019-03-11T00:03:55.218Z,5.60
2019-03-11T00:08:56.330Z,5.50
2019-03-11T00:13:57.727Z,5.70
2019-03-11T00:18:58.811Z,6.30
2019-03-11T00:23:59.928Z,5.60
2019-03-11T00:29:01.019Z,6.20
2019-03-11T00:34:02.112Z,5.40
2019-03-11T00:39:04.903Z,5.20
2019-03-11T00:44:05.992Z,6.00
2019-03-11T00:49:07.088Z,4.90
2019-03-11T00:54:08.170Z,4.70
2019-03-11T00:59:09.264Z,4.70
2019-03-11T01:04:10.347Z,4.80
2019-03-11T01:09:11.464Z,5.10
2019-03-11T01:14:12.594Z,5.00
2019-03-11T01:19:13.676Z,5.80
2019-03-11T01:24:14.782Z,4.90
2019-03-11T01:29:15.871Z,5.10
2019-03-11T01:34:16.963Z,5.30
2019-03-11T01:39:18.076Z,5.50
2019-03-11T01:44:19.147Z,5.90
2019-03-11T01:49:20.347Z,5.70
2019-03-11T01:54:21.441Z,5.40
2019-03-11T01:59:22.527Z,5.40
2019-03-11T02:04:23.617Z,5.40
2019-03-11T02:09:24.719Z,5.40
2019-03-11T02:14:25.825Z,5.40
2019-03-11T02:19:26.907Z,5.40
2019-03-11T02:24:28.011Z,5.60
2019-03-11T02:29:29.112Z,5.60
2019-03-11T02:34:30.187Z,5.60
2019-03-11T02:39:31.281Z,5.50
2019-03-11T02:44:32.363Z,6.50
2019-03-11T02:49:33.467Z,6.90
2019-03-11T02:54:34.568Z,5.50
2019-03-11T02:59:35.655Z,5.60
2019-03-11T03:04:38.661Z,5.80
2019-03-11T03:09:39.760Z,5.90
2019-03-11T03:14:40.844Z,6.00
2019-03-11T03:19:41.935Z,7.10
2019-03-11T03:24:43.049Z,6.10
2019-03-11T03:29:44.128Z,6.40
2019-03-11T03:34:45.233Z,6.00
2019-03-11T03:39:46.483Z,6.00
2019-03-11T03:45:24.837Z,6.10
2019-03-11T03:50:28.350Z,6.20
2019-03-11T03:55:29.524Z,6.20
2019-03-11T04:00:30.633Z,6.20
2019-03-11T04:05:31.819Z,6.20
2019-03-11T04:10:33.343Z,6.70
2019-03-11T04:15:34.503Z,6.10
2019-03-11T04:20:35.901Z,6.20
2019-03-11T04:25:37.300Z,6.20
2019-03-11T04:30:38.498Z,6.20
2019-03-11T04:35:39.584Z,6.10
2019-03-11T04:40:40.676Z,6.90
2019-03-11T04:45:41.772Z,6.90
2019-03-11T04:50:42.972Z,5.90
2019-03-11T04:55:44.067Z,5.80
2019-03-11T05:00:45.264Z,6.10
2019-03-11T05:05:46.351Z,5.60
2019-03-11T05:10:47.466Z,5.50
2019-03-11T05:15:48.560Z,5.50
2019-03-11T05:20:49.861Z,5.50
2019-03-11T05:25:50.947Z,6.10
2019-03-11T05:30:52.023Z,5.50
2019-03-11T05:35:53.115Z,5.70
2019-03-11T05:40:54.215Z,5.30
2019-03-11T05:45:55.303Z,5.80
2019-03-11T05:50:56.491Z,6.20
2019-03-11T05:55:57.641Z,4.90
2019-03-11T06:00:58.978Z,4.70
2019-03-11T06:06:00.074Z,4.90
2019-03-11T06:11:01.183Z,4.20
2019-03-11T06:16:02.301Z,4.10
2019-03-11T06:21:23.196Z,3.90
2019-03-11T06:26:24.285Z,3.90
2019-03-11T06:31:25.367Z,5.20
2019-03-11T06:36:26.487Z,3.90
2019-03-11T06:41:27.587Z,4.70
2019-03-11T06:46:28.683Z,4.90
2019-03-11T06:51:29.780Z,4.10
2019-03-11T06:56:30.874Z,4.20
2019-03-11T07:01:31.962Z,4.20
2019-03-11T07:06:33.054Z,4.70
2019-03-11T07:11:34.173Z,4.10
2019-03-11T07:16:35.283Z,4.10
2019-03-11T07:21:36.399Z,4.10
2019-03-11T07:26:37.482Z,4.10
2019-03-11T07:31:38.583Z,4.20
2019-03-11T07:36:39.681Z,4.70
2019-03-11T07:41:40.767Z,4.20
2019-03-11T07:46:41.977Z,4.20
2019-03-11T07:51:43.070Z,4.30
2019-03-11T07:56:44.176Z,4.30
2019-03-11T08:01:45.261Z,4.30
2019-03-11T08:06:46.359Z,4.30
2019-03-11T08:11:47.471Z,4.30
2019-03-11T08:16:48.572Z,4.20
2019-03-11T08:21:49.676Z,4.10
2019-03-11T08:26:50.759Z,4.10
2019-03-11T08:31:51.955Z,5.10
2019-03-11T08:36:53.048Z,4.20
2019-03-11T08:41:54.152Z,4.10
2019-03-11T08:46:55.264Z,4.10
2019-03-11T08:51:56.464Z,3.70
2019-03-11T08:56:57.566Z,3.50
2019-03-11T09:01:58.660Z,3.30
2019-03-11T09:06:59.761Z,3.10
2019-03-11T09:12:00.992Z,3.70
2019-03-11T09:17:02.191Z,5.40
2019-03-11T09:22:03.307Z,5.60
2019-03-11T09:27:04.541Z,6.00
2019-03-11T09:32:05.627Z,5.30
2019-03-11T09:37:06.733Z,5.30
2019-03-11T09:42:08.024Z,5.10
2019-03-11T09:47:09.132Z,5.70
2019-03-11T09:52:10.227Z,5.60
2019-03-11T09:57:11.332Z,5.40
2019-03-11T10:02:12.591Z,6.20
2019-03-11T10:07:13.737Z,5.50
2019-03-11T10:12:14.922Z,5.40
2019-03-11T10:17:16.018Z,5.40
2019-03-11T10:22:17.128Z,5.60
2019-03-11T10:27:18.243Z,6.10
2019-03-11T10:32:19.343Z,5.60
2019-03-11T10:37:20.470Z,5.40
2019-03-11T10:42:21.566Z,5.20
2019-03-11T10:47:22.658Z,6.00
2019-03-11T10:52:23.747Z,5.30
2019-03-11T10:57:24.855Z,5.40
2019-03-11T11:02:25.926Z,7.60
2019-03-11T11:07:27.043Z,7.20
2019-03-11T11:12:28.153Z,7.80
2019-03-11T11:17:29.248Z,7.40
2019-03-11T11:22:30.450Z,7.30
2019-03-11T11:27:31.536Z,7.00
2019-03-11T11:32:32.640Z,6.20
2019-03-11T11:37:33.745Z,7.00
2019-03-11T11:42:34.836Z,6.20
2019-03-11T11:47:35.924Z,6.50
2019-03-11T11:52:37.121Z,5.40
2019-03-11T11:57:38.212Z,6.20
2019-03-11T12:02:39.300Z,6.00
2019-03-11T12:07:40.423Z,5.30
2019-03-11T12:12:41.524Z,5.20
2019-03-11T12:17:42.729Z,5.60
2019-03-11T12:22:43.822Z,5.90
2019-03-11T12:27:53.119Z,6.60
2019-03-11T12:32:48.255Z,6.40
2019-03-11T12:37:49.566Z,7.10
2019-03-11T12:42:50.780Z,7.70
2019-03-11T12:47:52.160Z,7.60
2019-03-11T12:52:53.370Z,6.90
2019-03-11T12:57:54.582Z,6.30
2019-03-11T13:02:55.779Z,7.80
2019-03-11T13:07:56.895Z,10.20
2019-03-11T13:12:57.998Z,11.30
2019-03-11T13:18:19.762Z,11.60
2019-03-11T13:23:21.090Z,9.50
2019-03-11T13:28:22.187Z,8.00
2019-03-11T13:33:23.288Z,6.70
2019-03-11T13:38:24.392Z,6.70
2019-03-11T13:43:25.593Z,6.20
2019-03-11T13:48:26.899Z,6.40
2019-03-11T13:53:27.991Z,6.90
2019-03-11T13:58:33.335Z,7.50
2019-03-11T14:03:34.864Z,7.60
2019-03-11T14:08:36.096Z,7.40
2019-03-11T14:13:37.199Z,6.80
2019-03-11T14:18:38.314Z,6.50
2019-03-11T14:23:39.411Z,6.40
2019-03-11T14:28:40.502Z,6.20
2019-03-11T14:33:41.593Z,6.60
2019-03-11T14:38:42.694Z,6.70
2019-03-11T14:43:43.780Z,6.60
2019-03-11T14:48:44.873Z,8.00
2019-03-11T14:53:45.983Z,6.70
2019-03-11T14:58:47.085Z,6.80
2019-03-11T15:03:48.284Z,6.30
2019-03-11T15:08:49.551Z,5.90
2019-03-11T15:13:50.746Z,5.70
2019-03-11T15:18:52.870Z,5.60
2019-03-11T15:23:53.986Z,6.20
2019-03-11T15:28:55.332Z,7.50
2019-03-11T15:33:56.480Z,10.20
2019-03-11T15:38:57.578Z,11.90
2019-03-11T15:43:58.670Z,11.00
2019-03-11T15:48:59.784Z,8.80
2019-03-11T15:54:01.064Z,6.90
2019-03-11T15:59:02.172Z,6.60
2019-03-11T16:04:03.272Z,6.30
2019-03-11T16:09:04.814Z,2.80
2019-03-11T16:14:05.922Z,5.80
2019-03-11T16:19:07.137Z,5.60
2019-03-11T16:24:08.268Z,5.40
2019-03-11T16:29:09.428Z,4.90
2019-03-11T16:34:11.661Z,4.90
2019-03-11T16:39:12.732Z,4.60
2019-03-11T16:44:13.853Z,3.70
2019-03-11T16:49:15.053Z,3.10
2019-03-11T16:54:16.244Z,4.20
2019-03-11T16:59:17.356Z,3.30
2019-03-11T17:04:18.560Z,3.60
2019-03-11T17:09:19.706Z,3.20
2019-03-11T17:14:20.803Z,3.30
2019-03-11T17:19:21.920Z,3.20
2019-03-11T17:24:23.044Z,3.20
2019-03-11T17:29:24.191Z,2.90
2019-03-11T17:34:25.286Z,3.00
2019-03-11T17:39:26.375Z,3.20
2019-03-11T17:44:27.591Z,4.50
2019-03-11T17:49:28.824Z,3.70
2019-03-11T17:54:30.023Z,3.70
2019-03-11T17:59:31.133Z,4.20
2019-03-11T18:04:32.240Z,3.80
2019-03-11T18:09:33.387Z,3.80
2019-03-11T18:14:34.497Z,3.90
2019-03-11T18:19:35.617Z,4.50
2019-03-11T18:24:36.743Z,4.20
2019-03-11T18:29:37.863Z,4.20
2019-03-11T18:34:38.993Z,4.20
2019-03-11T18:39:40.233Z,4.10
2019-03-11T18:44:41.427Z,4.00
2019-03-11T18:49:42.603Z,4.20
2019-03-11T18:54:44.151Z,4.10
2019-03-11T18:59:45.351Z,4.10
2019-03-11T19:04:46.467Z,4.20
2019-03-11T19:09:47.724Z,4.40
2019-03-11T19:14:48.943Z,4.30
2019-03-11T19:19:50.572Z,4.50
2019-03-11T19:24:51.995Z,4.30
2019-03-11T19:29:53.289Z,4.80
2019-03-11T19:34:54.642Z,4.40
2019-03-11T19:39:55.838Z,4.50
2019-03-11T19:44:57.041Z,4.50
2019-03-11T19:49:58.361Z,5.70
2019-03-11T19:54:59.696Z,4.30
2019-03-11T20:00:01.161Z,4.20
2019-03-11T20:05:04.304Z,4.10
2019-03-11T20:10:09.392Z,4.10
2019-03-11T20:15:10.789Z,4.00
2019-03-11T20:20:17.466Z,4.00
2019-03-11T20:25:22.503Z,4.10
2019-03-11T20:30:24.648Z,4.20
2019-03-11T20:35:26.175Z,4.10
2019-03-11T20:40:27.386Z,4.10
2019-03-11T20:45:28.555Z,4.20
2019-03-11T20:50:41.421Z,4.20
2019-03-11T20:55:34.172Z,4.50
2019-03-11T21:00:35.629Z,4.90
2019-03-11T21:05:39.373Z,4.20
2019-03-11T21:10:40.741Z,4.10
2019-03-11T21:15:41.918Z,4.20
2019-03-11T21:20:43.226Z,4.20
2019-03-11T21:25:44.634Z,4.20
2019-03-11T21:30:45.883Z,4.20
2019-03-11T21:35:47.143Z,4.30
2019-03-11T21:40:48.544Z,4.20
2019-03-11T21:45:49.743Z,4.30
2019-03-11T21:50:50.905Z,4.00
2019-03-11T21:55:52.114Z,4.00
2019-03-11T22:00:53.404Z,4.00
2019-03-11T22:05:54.728Z,4.30
2019-03-11T22:10:55.855Z,4.00
2019-03-11T22:15:56.952Z,4.00
2019-03-11T22:20:58.053Z,5.10
2019-03-11T22:25:59.272Z,4.10
2019-03-11T22:31:00.536Z,4.40
2019-03-11T22:36:01.737Z,4.30
2019-03-11T22:41:02.936Z,4.30
2019-03-11T22:46:04.034Z,4.20
2019-03-11T22:51:05.151Z,4.50
2019-03-11T22:56:06.276Z,4.60
2019-03-11T23:01:07.974Z,4.20
2019-03-11T23:06:09.183Z,4.30
2019-03-11T23:11:10.294Z,4.30
2019-03-11T23:16:11.388Z,4.30
2019-03-11T23:21:12.487Z,4.50
2019-03-11T23:26:13.632Z,4.30
2019-03-11T23:31:14.786Z,4.20
2019-03-11T23:36:15.953Z,4.20
2019-03-11T23:41:17.089Z,4.10
2019-03-11T23:46:18.235Z,4.20
2019-03-11T23:51:19.362Z,4.10
2019-03-11T23:56:20.472Z,4.10
